createdAt,value
2018-06-21T00:01:34.700Z,1.97
2018-06-21T00:04:02.087Z,2.13
2018-06-21T00:06:29.574Z,1.97
2018-06-21T00:08:57.059Z,2.17
2018-06-21T00:11:24.576Z,1.90
2018-06-21T00:13:52.953Z,1.90
2018-06-21T00:16:20.391Z,1.97
2018-06-21T00:18:47.776Z,2.07
2018-06-21T00:21:15.938Z,2.00
2018-06-21T00:23:43.643Z,1.97
2018-06-21T00:26:11.049Z,1.80
2018-06-21T00:28:38.607Z,1.80
2018-06-21T00:31:07.175Z,2.00
2018-06-21T00:33:34.563Z,1.90
2018-06-21T00:36:02.743Z,1.90
2018-06-21T00:38:30.235Z,2.07
2018-06-21T00:40:57.655Z,1.90
2018-06-21T00:43:25.127Z,1.93
2018-06-21T00:45:53.535Z,1.77
2018-06-21T00:48:20.947Z,2.10
2018-06-21T00:50:48.327Z,2.17
2018-06-21T00:53:15.743Z,1.77
2018-06-21T00:55:48.846Z,1.80
2018-06-21T00:58:16.347Z,1.70
2018-06-21T01:00:43.742Z,2.20
2018-06-21T01:03:11.111Z,2.00
2018-06-21T01:05:38.721Z,1.50
2018-06-21T01:08:06.205Z,1.93
2018-06-21T01:10:33.587Z,1.70
2018-06-21T01:13:01.000Z,1.80
2018-06-21T01:15:28.371Z,2.00
2018-06-21T01:17:55.955Z,1.73
2018-06-21T01:20:23.459Z,2.00
2018-06-21T01:22:50.835Z,2.00
2018-06-21T01:25:18.266Z,2.00
2018-06-21T01:27:45.682Z,2.00
2018-06-21T01:30:13.243Z,2.00
2018-06-21T01:32:40.613Z,2.20
2018-06-21T01:35:08.656Z,2.30
2018-06-21T01:37:36.229Z,2.40
2018-06-21T01:40:03.655Z,2.00
2018-06-21T01:42:31.082Z,1.93
2018-06-21T01:44:58.596Z,2.27
2018-06-21T01:47:26.060Z,2.20
2018-06-21T01:49:53.470Z,2.37
2018-06-21T01:52:20.983Z,2.70
2018-06-21T01:54:48.424Z,2.50
2018-06-21T01:57:15.927Z,2.90
2018-06-21T01:59:43.343Z,2.77
2018-06-21T02:02:10.799Z,2.90
2018-06-21T02:04:38.249Z,3.00
2018-06-21T02:07:05.903Z,3.10
2018-06-21T02:09:33.283Z,3.30
2018-06-21T02:12:01.519Z,3.40
2018-06-21T02:14:29.094Z,3.70
2018-06-21T02:16:56.475Z,3.53
2018-06-21T02:19:23.970Z,3.50
2018-06-21T02:21:51.815Z,3.83
2018-06-21T02:24:19.443Z,3.93
2018-06-21T02:26:46.855Z,3.70
2018-06-21T02:29:14.223Z,3.73
2018-06-21T02:31:41.602Z,3.50
2018-06-21T02:34:09.268Z,4.10
2018-06-21T02:36:37.229Z,3.83
2018-06-21T02:39:06.643Z,4.60
2018-06-21T02:41:34.057Z,4.27
2018-06-21T02:44:01.565Z,4.30
2018-06-21T02:46:29.019Z,4.30
2018-06-21T02:48:56.431Z,4.53
2018-06-21T02:51:23.932Z,4.37
2018-06-21T02:53:51.474Z,4.30
2018-06-21T02:56:18.887Z,4.37
2018-06-21T02:58:46.867Z,4.30
2018-06-21T03:01:14.239Z,3.93
2018-06-21T03:03:41.860Z,4.63
2018-06-21T03:06:09.299Z,3.37
2018-06-21T03:08:36.740Z,2.90
2018-06-21T03:11:04.229Z,3.60
2018-06-21T03:13:31.619Z,3.00
2018-06-21T03:15:59.115Z,3.63
2018-06-21T03:18:26.515Z,3.50
2018-06-21T03:20:54.023Z,4.00
2018-06-21T03:23:21.394Z,3.83
2018-06-21T03:25:48.818Z,3.53
2018-06-21T03:28:16.395Z,3.60
2018-06-21T03:30:44.043Z,3.30
2018-06-21T03:33:11.681Z,3.97
2018-06-21T03:35:39.158Z,3.40
2018-06-21T03:38:06.835Z,3.60
2018-06-21T03:40:34.248Z,4.00
2018-06-21T03:43:01.631Z,3.13
2018-06-21T03:45:29.211Z,3.13
2018-06-21T03:47:56.703Z,3.57
2018-06-21T03:50:24.123Z,3.50
2018-06-21T03:52:51.609Z,3.03
2018-06-21T03:55:19.107Z,3.07
2018-06-21T03:57:46.580Z,2.70
2018-06-21T04:00:13.963Z,3.00
2018-06-21T04:02:41.743Z,3.17
2018-06-21T04:05:09.168Z,3.07
2018-06-21T04:07:36.628Z,2.10
2018-06-21T04:10:04.639Z,2.10
2018-06-21T04:12:32.158Z,2.30
2018-06-21T04:14:59.611Z,2.30
2018-06-21T04:17:27.123Z,2.60
2018-06-21T04:19:54.526Z,2.37
2018-06-21T04:22:22.014Z,2.10
2018-06-21T04:24:49.427Z,2.20
2018-06-21T04:27:16.960Z,2.20
2018-06-21T04:29:44.981Z,2.60
2018-06-21T04:32:12.552Z,2.27
2018-06-21T04:34:40.015Z,2.20
2018-06-21T04:37:07.507Z,2.50
2018-06-21T04:39:35.127Z,2.30
2018-06-21T04:42:03.175Z,2.40
2018-06-21T04:44:30.627Z,2.20
2018-06-21T04:46:58.123Z,2.00
2018-06-21T04:49:25.546Z,2.00
2018-06-21T04:51:53.005Z,2.20
2018-06-21T04:54:20.399Z,1.90
2018-06-21T04:56:48.004Z,2.17
2018-06-21T04:59:15.388Z,2.00
2018-06-21T05:01:42.923Z,2.00
2018-06-21T05:04:10.395Z,1.90
2018-06-21T05:06:38.095Z,1.70
2018-06-21T05:09:07.612Z,1.70
2018-06-21T05:11:35.115Z,1.70
2018-06-21T05:14:02.567Z,1.83
2018-06-21T05:16:29.959Z,1.40
2018-06-21T05:18:57.367Z,1.60
2018-06-21T05:21:24.975Z,1.67
2018-06-21T05:23:52.431Z,1.60
2018-06-21T05:26:19.807Z,1.60
2018-06-21T05:28:47.924Z,1.77
2018-06-21T05:31:15.355Z,1.83
2018-06-21T05:33:42.927Z,1.80
2018-06-21T05:36:10.303Z,1.70
2018-06-21T05:38:37.793Z,1.67
2018-06-21T05:41:05.171Z,1.70
2018-06-21T05:43:32.550Z,1.43
2018-06-21T05:46:00.151Z,1.50
2018-06-21T05:48:27.583Z,1.70
2018-06-21T05:50:55.040Z,1.70
2018-06-21T05:53:22.455Z,1.70
2018-06-21T05:55:49.948Z,1.77
2018-06-21T05:58:17.404Z,1.80
2018-06-21T06:00:45.209Z,1.40
2018-06-21T06:03:12.621Z,1.90
2018-06-21T06:05:40.043Z,1.80
2018-06-21T06:08:07.681Z,1.63
2018-06-21T06:10:35.311Z,1.70
2018-06-21T06:13:02.767Z,1.43
2018-06-21T06:15:30.246Z,1.53
2018-06-21T06:17:57.679Z,1.70
2018-06-21T06:20:25.077Z,1.67
2018-06-21T06:22:52.680Z,1.70
2018-06-21T06:25:20.071Z,2.40
2018-06-21T06:27:47.503Z,1.60
2018-06-21T06:30:14.994Z,1.97
2018-06-21T06:32:42.430Z,1.60
2018-06-21T06:35:09.919Z,1.60
2018-06-21T06:37:37.422Z,1.30
2018-06-21T06:40:04.787Z,1.17
2018-06-21T06:42:32.188Z,1.40
2018-06-21T06:44:59.794Z,1.80
2018-06-21T06:47:28.183Z,2.20
2018-06-21T06:49:56.019Z,1.93
2018-06-21T06:52:23.950Z,1.30
2018-06-21T06:54:51.380Z,1.67
2018-06-21T06:57:18.835Z,1.17
2018-06-21T06:59:46.311Z,1.20
2018-06-21T07:02:13.751Z,1.43
2018-06-21T07:04:41.371Z,1.50
2018-06-21T07:07:08.992Z,1.50
2018-06-21T07:09:36.423Z,1.27
2018-06-21T07:12:03.865Z,1.30
2018-06-21T07:14:31.389Z,1.20
2018-06-21T07:16:58.747Z,1.00
2018-06-21T07:19:26.295Z,1.13
2018-06-21T07:21:53.671Z,1.10
2018-06-21T07:24:21.167Z,1.10
2018-06-21T07:26:48.559Z,1.20
2018-06-21T07:29:15.960Z,1.00
2018-06-21T07:31:43.531Z,0.90
2018-06-21T07:34:10.936Z,0.90
2018-06-21T07:36:38.311Z,0.93
2018-06-21T07:39:07.665Z,1.00
2018-06-21T07:41:35.294Z,1.10
2018-06-21T07:44:02.882Z,0.90
2018-06-21T07:46:30.745Z,0.97
2018-06-21T07:48:58.172Z,1.23
2018-06-21T07:51:25.647Z,1.20
2018-06-21T07:53:53.119Z,1.40
2018-06-21T07:56:20.615Z,1.10
2018-06-21T07:58:48.106Z,1.10
2018-06-21T08:01:15.475Z,1.10
2018-06-21T08:03:42.895Z,1.00
2018-06-21T08:06:10.391Z,1.10
2018-06-21T08:08:37.759Z,1.10
2018-06-21T08:11:05.171Z,1.03
2018-06-21T08:13:32.767Z,1.20
2018-06-21T08:16:00.216Z,1.10
2018-06-21T08:18:27.696Z,1.07
2018-06-21T08:20:55.133Z,1.20
2018-06-21T08:23:22.619Z,1.30
2018-06-21T08:25:50.075Z,1.30
2018-06-21T08:28:17.499Z,1.50
2018-06-21T08:30:44.865Z,1.30
2018-06-21T08:33:12.448Z,1.20
2018-06-21T08:35:39.871Z,1.20
2018-06-21T08:38:07.359Z,1.37
2018-06-21T08:40:34.823Z,1.40
2018-06-21T08:43:02.239Z,1.43
2018-06-21T08:45:29.703Z,1.50
2018-06-21T08:47:57.799Z,1.67
2018-06-21T08:50:25.227Z,1.30
2018-06-21T08:52:52.595Z,1.43
2018-06-21T08:55:19.995Z,1.30
2018-06-21T08:57:47.613Z,1.60
2018-06-21T09:00:15.671Z,1.83
2018-06-21T09:02:43.213Z,1.63
2018-06-21T09:05:10.603Z,1.60
2018-06-21T09:07:38.127Z,1.40
2018-06-21T09:10:05.527Z,1.50
2018-06-21T09:12:36.334Z,1.40
2018-06-21T09:15:04.319Z,1.20
2018-06-21T09:17:31.884Z,1.40
2018-06-21T09:19:59.331Z,1.53
2018-06-21T09:22:26.699Z,1.90
2018-06-21T09:24:54.130Z,1.80
2018-06-21T09:27:21.687Z,1.90
2018-06-21T09:29:49.055Z,2.23
2018-06-21T09:32:16.631Z,1.73
2018-06-21T09:34:44.058Z,1.70
2018-06-21T09:37:11.475Z,1.37
2018-06-21T09:39:44.577Z,1.60
2018-06-21T09:42:18.207Z,1.40
2018-06-21T09:44:50.954Z,1.47
2018-06-21T09:47:23.623Z,1.60
2018-06-21T09:49:52.235Z,1.80
2018-06-21T09:52:19.607Z,1.90
2018-06-21T09:54:47.059Z,1.90
2018-06-21T09:57:14.559Z,1.90
2018-06-21T09:59:42.019Z,2.10
2018-06-21T10:02:09.427Z,2.10
2018-06-21T10:04:36.839Z,2.70
2018-06-21T10:07:04.354Z,2.47
2018-06-21T10:09:32.719Z,2.80
2018-06-21T10:12:00.204Z,2.50
2018-06-21T10:14:27.589Z,2.83
2018-06-21T10:16:54.983Z,3.07
2018-06-21T10:19:22.411Z,2.97
2018-06-21T10:21:50.095Z,2.83
2018-06-21T10:24:17.481Z,2.93
2018-06-21T10:26:44.946Z,3.00
2018-06-21T10:29:12.423Z,3.00
2018-06-21T10:31:39.836Z,2.70
2018-06-21T10:34:07.315Z,2.60
2018-06-21T10:36:34.693Z,2.80
2018-06-21T10:39:02.215Z,2.80
2018-06-21T10:41:29.751Z,2.70
2018-06-21T10:43:57.595Z,3.37
2018-06-21T10:46:24.984Z,3.20
2018-06-21T10:48:52.385Z,2.50
2018-06-21T10:51:19.798Z,2.80
2018-06-21T10:53:47.287Z,2.77
2018-06-21T10:56:14.725Z,2.37
2018-06-21T10:58:42.778Z,2.73
2018-06-21T11:01:10.239Z,2.30
2018-06-21T11:03:37.723Z,2.97
2018-06-21T11:06:05.371Z,2.60
2018-06-21T11:08:32.746Z,2.50
2018-06-21T11:11:00.403Z,2.53
2018-06-21T11:13:27.793Z,2.67
2018-06-21T11:15:55.284Z,2.50
2018-06-21T11:18:22.771Z,2.70
2018-06-21T11:20:50.203Z,2.57
2018-06-21T11:23:17.585Z,2.40
2018-06-21T11:25:45.139Z,2.60
2018-06-21T11:28:12.567Z,2.50
2018-06-21T11:30:39.963Z,2.80
2018-06-21T11:33:07.379Z,2.97
2018-06-21T11:35:34.759Z,3.20
2018-06-21T11:38:02.154Z,2.90
2018-06-21T11:40:29.884Z,2.73
2018-06-21T11:42:57.307Z,2.87
2018-06-21T11:45:24.766Z,3.10
2018-06-21T11:47:52.255Z,3.23
2018-06-21T11:50:19.700Z,2.93
2018-06-21T11:52:47.749Z,3.00
2018-06-21T11:55:15.251Z,3.10
2018-06-21T11:57:42.971Z,2.80
2018-06-21T12:00:10.359Z,3.17
2018-06-21T12:02:37.920Z,3.00
2018-06-21T12:05:05.344Z,3.43
2018-06-21T12:07:32.802Z,3.00
2018-06-21T12:10:00.299Z,2.73
2018-06-21T12:12:27.687Z,2.80
2018-06-21T12:14:55.167Z,2.80
2018-06-21T12:17:22.667Z,2.73
2018-06-21T12:19:50.119Z,2.83
2018-06-21T12:22:17.537Z,2.70
2018-06-21T12:24:44.999Z,2.67
2018-06-21T12:27:12.546Z,2.40
2018-06-21T12:29:39.935Z,2.80
2018-06-21T12:32:07.340Z,2.83
2018-06-21T12:34:34.759Z,2.90
2018-06-21T12:37:02.196Z,3.03
2018-06-21T12:39:30.200Z,2.80
2018-06-21T12:41:57.603Z,2.80
2018-06-21T12:44:25.575Z,2.77
2018-06-21T12:46:53.031Z,2.40
2018-06-21T12:49:20.427Z,2.87
2018-06-21T12:51:47.815Z,2.60
2018-06-21T12:54:15.399Z,2.60
2018-06-21T12:56:43.583Z,2.93
2018-06-21T12:59:11.017Z,2.83
2018-06-21T13:01:39.089Z,2.50
2018-06-21T13:04:06.487Z,2.30
2018-06-21T13:06:33.913Z,2.23
2018-06-21T13:09:06.771Z,2.50
2018-06-21T13:11:39.731Z,2.53
2018-06-21T13:14:12.727Z,2.43
2018-06-21T13:16:40.127Z,1.90
2018-06-21T13:19:07.532Z,2.50
2018-06-21T13:21:35.027Z,2.20
2018-06-21T13:24:02.412Z,2.30
2018-06-21T13:26:29.884Z,2.20
2018-06-21T13:28:57.318Z,2.10
2018-06-21T13:31:24.695Z,2.00
2018-06-21T13:33:52.124Z,1.80
2018-06-21T13:36:19.491Z,2.33
2018-06-21T13:38:46.879Z,2.03
2018-06-21T13:41:14.283Z,1.90
2018-06-21T13:43:41.739Z,1.80
2018-06-21T13:46:09.195Z,2.00
2018-06-21T13:48:36.603Z,2.00
2018-06-21T13:51:03.995Z,2.20
2018-06-21T13:53:31.375Z,2.00
2018-06-21T13:55:58.786Z,1.93
2018-06-21T13:58:26.539Z,2.20
2018-06-21T14:00:53.939Z,2.40
2018-06-21T14:03:22.287Z,1.83
2018-06-21T14:05:49.699Z,1.93
2018-06-21T14:08:17.332Z,2.20
2018-06-21T14:10:44.714Z,2.20
2018-06-21T14:13:12.160Z,2.20
2018-06-21T14:15:39.598Z,2.50
2018-06-21T14:18:07.092Z,2.10
2018-06-21T14:20:34.542Z,2.20
2018-06-21T14:23:01.939Z,2.27
2018-06-21T14:25:29.367Z,2.30
2018-06-21T14:27:57.416Z,2.30
2018-06-21T14:30:25.476Z,2.03
2018-06-21T14:32:52.959Z,2.20
2018-06-21T14:35:20.402Z,2.00
2018-06-21T14:37:47.803Z,2.30
2018-06-21T14:40:15.423Z,2.60
2018-06-21T14:42:42.920Z,3.17
2018-06-21T14:45:10.303Z,3.50
2018-06-21T14:47:37.917Z,4.10
2018-06-21T14:50:06.356Z,2.17
2018-06-21T14:52:33.736Z,1.20
2018-06-21T14:55:01.153Z,1.60
2018-06-21T14:57:28.628Z,1.40
2018-06-21T14:59:56.091Z,1.80
2018-06-21T15:02:23.559Z,2.20
2018-06-21T15:04:50.991Z,2.90
2018-06-21T15:07:18.453Z,3.70
2018-06-21T15:09:45.927Z,3.63
2018-06-21T15:12:13.307Z,2.70
2018-06-21T15:14:40.689Z,3.20
2018-06-21T15:17:09.267Z,2.53
2018-06-21T15:19:36.690Z,2.10
2018-06-21T15:22:04.132Z,2.40
2018-06-21T15:24:31.591Z,2.60
2018-06-21T15:26:59.038Z,2.40
2018-06-21T15:29:26.469Z,2.30
2018-06-21T15:31:53.907Z,2.20
2018-06-21T15:34:21.464Z,2.47
2018-06-21T15:36:49.159Z,2.00
2018-06-21T15:39:19.346Z,2.03
2018-06-21T15:41:46.932Z,1.90
2018-06-21T15:44:14.399Z,2.00
2018-06-21T15:46:42.083Z,2.00
2018-06-21T15:49:09.708Z,2.10
2018-06-21T15:51:37.171Z,1.70
2018-06-21T15:54:04.875Z,2.27
2018-06-21T15:56:32.261Z,2.23
2018-06-21T15:58:59.856Z,1.63
2018-06-21T16:01:27.950Z,1.60
2018-06-21T16:03:55.355Z,1.80
2018-06-21T16:06:22.738Z,1.77
2018-06-21T16:08:50.311Z,1.50
2018-06-21T16:11:17.756Z,1.50
2018-06-21T16:13:45.906Z,1.60
2018-06-21T16:16:13.374Z,1.93
2018-06-21T16:18:40.803Z,1.73
2018-06-21T16:21:09.131Z,2.00
2018-06-21T16:23:36.602Z,1.60
2018-06-21T16:26:04.023Z,2.00
2018-06-21T16:28:31.489Z,1.80
2018-06-21T16:30:58.981Z,1.80
2018-06-21T16:33:26.399Z,2.30
2018-06-21T16:35:54.875Z,2.10
2018-06-21T16:38:22.305Z,2.13
2018-06-21T16:40:49.764Z,2.30
2018-06-21T16:43:17.283Z,1.90
2018-06-21T16:45:44.955Z,1.70
2018-06-21T16:48:12.409Z,1.77
2018-06-21T16:50:39.791Z,1.63
2018-06-21T16:53:07.306Z,1.80
2018-06-21T16:55:34.704Z,1.60
2018-06-21T16:58:02.110Z,1.30
2018-06-21T17:00:29.679Z,1.67
2018-06-21T17:02:57.204Z,1.47
2018-06-21T17:05:24.571Z,2.03
2018-06-21T17:07:52.907Z,1.83
2018-06-21T17:10:20.335Z,1.50
2018-06-21T17:12:47.699Z,1.83
2018-06-21T17:15:15.474Z,2.30
2018-06-21T17:17:43.107Z,2.00
2018-06-21T17:20:10.527Z,2.10
2018-06-21T17:22:38.323Z,2.27
2018-06-21T17:25:06.623Z,2.20
2018-06-21T17:27:33.999Z,2.10
2018-06-21T17:30:02.043Z,2.33
2018-06-21T17:32:29.671Z,2.80
2018-06-21T17:34:57.051Z,2.97
2018-06-21T17:37:24.908Z,2.50
2018-06-21T17:39:52.337Z,2.10
2018-06-21T17:42:19.719Z,2.23
2018-06-21T17:44:47.115Z,1.80
2018-06-21T17:47:14.724Z,1.90
2018-06-21T17:49:42.096Z,2.13
2018-06-21T17:52:09.671Z,2.10
2018-06-21T17:54:37.056Z,2.10
2018-06-21T17:57:04.454Z,2.10
2018-06-21T17:59:31.859Z,2.30
2018-06-21T18:01:59.262Z,2.23
2018-06-21T18:04:26.631Z,2.20
2018-06-21T18:06:54.203Z,2.77
2018-06-21T18:09:21.912Z,2.70
2018-06-21T18:11:49.289Z,3.10
2018-06-21T18:14:16.990Z,2.90
2018-06-21T18:16:44.507Z,2.93
2018-06-21T18:19:12.065Z,2.60
2018-06-21T18:21:39.555Z,2.83
2018-06-21T18:24:06.948Z,3.13
2018-06-21T18:26:34.435Z,2.83
2018-06-21T18:29:02.022Z,3.10
2018-06-21T18:31:29.428Z,3.10
2018-06-21T18:33:57.221Z,4.53
2018-06-21T18:36:25.319Z,6.37
2018-06-21T18:38:52.741Z,2.80
2018-06-21T18:41:20.199Z,3.40
2018-06-21T18:43:47.679Z,2.80
2018-06-21T18:46:15.083Z,3.20
2018-06-21T18:48:42.571Z,3.73
2018-06-21T18:51:09.995Z,3.57
2018-06-21T18:53:38.047Z,4.63
2018-06-21T18:56:05.599Z,4.43
2018-06-21T18:58:33.011Z,3.93
2018-06-21T19:01:00.462Z,3.87
2018-06-21T19:03:27.943Z,4.00
2018-06-21T19:05:55.415Z,5.50
2018-06-21T19:08:28.115Z,3.87
2018-06-21T19:11:01.876Z,4.63
2018-06-21T19:13:30.215Z,5.10
2018-06-21T19:15:57.807Z,5.60
2018-06-21T19:18:25.499Z,5.50
2018-06-21T19:20:52.906Z,5.40
2018-06-21T19:23:22.422Z,5.40
2018-06-21T19:25:49.835Z,5.57
2018-06-21T19:28:17.230Z,6.70
2018-06-21T19:30:44.705Z,5.40
2018-06-21T19:33:12.183Z,5.10
2018-06-21T19:35:39.552Z,4.40
2018-06-21T19:38:07.076Z,4.20
2018-06-21T19:40:34.490Z,4.47
2018-06-21T19:43:02.033Z,4.90
2018-06-21T19:45:29.439Z,5.17
2018-06-21T19:47:56.919Z,3.70
2018-06-21T19:50:24.435Z,4.63
2018-06-21T19:52:51.833Z,3.50
2018-06-21T19:55:19.242Z,3.33
2018-06-21T19:57:46.726Z,3.50
2018-06-21T20:00:14.520Z,3.27
2018-06-21T20:02:47.223Z,3.40
2018-06-21T20:05:14.630Z,3.60
2018-06-21T20:07:42.155Z,4.07
2018-06-21T20:10:10.483Z,3.53
2018-06-21T20:12:37.913Z,4.00
2018-06-21T20:15:05.457Z,3.80
2018-06-21T20:17:32.862Z,4.30
2018-06-21T20:20:05.711Z,4.10
2018-06-21T20:22:33.281Z,3.57
2018-06-21T20:25:00.732Z,3.70
2018-06-21T20:27:28.130Z,3.20
2018-06-21T20:29:55.554Z,3.20
2018-06-21T20:32:23.196Z,3.37
2018-06-21T20:34:50.572Z,3.40
2018-06-21T20:37:17.955Z,3.37
2018-06-21T20:39:45.531Z,3.40
2018-06-21T20:42:13.144Z,3.50
2018-06-21T20:44:40.525Z,3.17
2018-06-21T20:47:08.702Z,3.87
2018-06-21T20:49:36.213Z,3.37
2018-06-21T20:52:03.644Z,2.90
2018-06-21T20:54:31.039Z,3.10
2018-06-21T20:56:58.588Z,2.87
2018-06-21T20:59:26.989Z,2.60
2018-06-21T21:01:54.451Z,2.57
2018-06-21T21:04:23.328Z,3.03
2018-06-21T21:06:50.704Z,3.07
2018-06-21T21:09:18.368Z,2.60
2018-06-21T21:11:45.795Z,2.53
2018-06-21T21:14:13.224Z,2.53
2018-06-21T21:16:40.723Z,2.50
2018-06-21T21:19:08.468Z,2.40
2018-06-21T21:21:35.876Z,1.90
2018-06-21T21:24:03.409Z,1.33
2018-06-21T21:26:30.922Z,1.40
2018-06-21T21:28:58.379Z,1.40
2018-06-21T21:31:25.815Z,1.23
2018-06-21T21:33:53.245Z,1.10
2018-06-21T21:36:20.666Z,1.07
2018-06-21T21:38:48.071Z,1.00
2018-06-21T21:41:15.475Z,1.00
2018-06-21T21:43:42.884Z,1.20
2018-06-21T21:46:10.515Z,1.00
2018-06-21T21:48:37.919Z,1.10
2018-06-21T21:51:05.316Z,0.90
2018-06-21T21:53:32.946Z,1.10
2018-06-21T21:56:00.344Z,0.87
2018-06-21T21:58:27.771Z,1.00
2018-06-21T22:00:56.298Z,0.97
2018-06-21T22:03:23.912Z,0.97
2018-06-21T22:05:51.369Z,0.87
2018-06-21T22:08:18.792Z,0.67
2018-06-21T22:10:47.215Z,0.90
2018-06-21T22:13:16.265Z,0.90
2018-06-21T22:15:44.611Z,0.80
2018-06-21T22:18:12.009Z,1.00
2018-06-21T22:20:39.813Z,0.90
2018-06-21T22:23:07.220Z,1.00
2018-06-21T22:25:34.609Z,0.80
2018-06-21T22:28:01.996Z,0.83
2018-06-21T22:30:30.311Z,0.80
2018-06-21T22:32:58.043Z,0.80
2018-06-21T22:35:25.460Z,0.73
2018-06-21T22:37:52.947Z,0.63
2018-06-21T22:40:20.682Z,0.80
2018-06-21T22:42:48.146Z,0.70
2018-06-21T22:45:15.727Z,0.80
2018-06-21T22:47:43.154Z,0.90
2018-06-21T22:50:10.920Z,0.80
2018-06-21T22:52:38.877Z,0.70
2018-06-21T22:55:06.271Z,0.87
2018-06-21T22:57:34.327Z,0.70
2018-06-21T23:00:02.004Z,0.60
2018-06-21T23:02:29.444Z,0.80
2018-06-21T23:04:57.507Z,0.70
2018-06-21T23:07:24.943Z,0.70
2018-06-21T23:09:52.315Z,0.70
2018-06-21T23:12:19.727Z,0.87
2018-06-21T23:14:47.362Z,0.83
2018-06-21T23:17:14.787Z,1.30
2018-06-21T23:19:42.860Z,0.73
2018-06-21T23:22:10.284Z,0.93
2018-06-21T23:24:37.781Z,0.70
2018-06-21T23:27:05.244Z,0.67
2018-06-21T23:29:32.719Z,0.60
2018-06-21T23:32:00.144Z,0.90
2018-06-21T23:34:27.599Z,0.70
2018-06-21T23:36:55.089Z,0.90
2018-06-21T23:39:22.515Z,0.90
2018-06-21T23:41:49.884Z,0.90
2018-06-21T23:44:17.287Z,0.83
2018-06-21T23:46:45.175Z,0.90
2018-06-21T23:49:13.179Z,0.80
2018-06-21T23:51:40.804Z,0.90
2018-06-21T23:54:10.328Z,0.90
2018-06-21T23:56:37.786Z,0.90
2018-06-21T23:59:05.268Z,0.77
